Time;durP1;ratioP1;P1;durP2;ratioP2;P2;SDS_P1;SDS_P2;PMS_P1;PMS_P2;Temp;Humidity;BMP_temperature;BMP_pressure;BME280_temperature;BME280_humidity;BME280_pressure;Samples;Min_cycle;Max_cycle;Signal;HPM_P1;HPM_P2
2022/04/08 00:00:13;;;;;;;1.27;1.17;;;9.40;99.90;;;;;;4974652;28;20440;-87
2022/04/08 00:02:39;;;;;;;3.70;1.53;;;9.40;99.90;;;;;;4975366;28;20189;-88
2022/04/08 00:05:09;;;;;;;5.63;1.23;;;9.40;99.90;;;;;;4982853;28;20431;-88
2022/04/08 00:07:35;;;;;;;3.67;1.17;;;9.30;99.90;;;;;;4989609;28;20360;-88
2022/04/08 00:10:01;;;;;;;5.10;1.33;;;9.30;99.90;;;;;;4992242;28;20815;-88
2022/04/08 00:12:28;;;;;;;2.30;0.80;;;9.30;99.90;;;;;;4982187;28;20230;-87
2022/04/08 00:14:54;;;;;;;3.00;1.03;;;9.30;99.90;;;;;;4977766;28;20483;-87
2022/04/08 00:17:20;;;;;;;2.90;0.90;;;9.30;99.90;;;;;;4989891;28;20493;-87
2022/04/08 00:19:45;;;;;;;4.10;1.40;;;9.30;99.90;;;;;;4973628;28;20197;-87
2022/04/08 00:22:11;;;;;;;3.00;1.20;;;9.30;99.90;;;;;;4988877;28;20179;-87
2022/04/08 00:24:36;;;;;;;4.83;1.30;;;9.30;99.90;;;;;;4970765;28;20997;-85
2022/04/08 00:27:02;;;;;;;3.20;1.13;;;9.30;99.90;;;;;;4977761;28;20299;-86
2022/04/08 00:29:27;;;;;;;4.80;1.53;;;9.30;99.90;;;;;;4977873;28;20215;-88
2022/04/08 00:31:57;;;;;;;2.33;1.30;;;9.30;99.90;;;;;;4978531;28;20208;-87
2022/04/08 00:34:27;;;;;;;4.33;1.20;;;9.30;99.90;;;;;;4981184;28;20320;-88
2022/04/08 00:36:54;;;;;;;3.50;1.23;;;9.30;99.90;;;;;;4973605;28;20479;-87
2022/04/08 00:39:20;;;;;;;2.20;1.10;;;9.30;99.90;;;;;;4966109;28;21004;-87
2022/04/08 00:41:46;;;;;;;1.60;1.03;;;9.30;99.90;;;;;;4982271;28;20576;-87
2022/04/08 00:44:12;;;;;;;3.67;0.80;;;9.20;99.90;;;;;;4974983;28;20446;-87
2022/04/08 00:46:38;;;;;;;2.20;1.67;;;9.30;99.90;;;;;;4990677;28;20718;-88
2022/04/08 00:49:04;;;;;;;11.43;1.90;;;9.20;99.90;;;;;;4965906;28;21591;-87
2022/04/08 00:51:31;;;;;;;4.47;1.40;;;9.20;99.90;;;;;;4972486;28;20477;-87
2022/04/08 00:53:59;;;;;;;2.10;1.20;;;9.20;99.90;;;;;;4980226;28;21051;-87
2022/04/08 00:56:28;;;;;;;1.67;0.83;;;9.20;99.90;;;;;;4972502;28;20471;-87
2022/04/08 00:58:56;;;;;;;5.80;1.30;;;9.20;99.90;;;;;;4956999;28;20467;-86
2022/04/08 01:01:23;;;;;;;3.77;1.27;;;9.20;99.90;;;;;;4964904;28;20499;-87
2022/04/08 01:03:52;;;;;;;3.00;1.50;;;9.20;99.90;;;;;;4970933;28;20444;-85
2022/04/08 01:06:21;;;;;;;3.90;1.13;;;9.10;99.90;;;;;;4965182;28;20455;-85
2022/04/08 01:08:49;;;;;;;1.03;0.87;;;9.10;99.90;;;;;;4958052;28;20438;-85
2022/04/08 01:11:21;;;;;;;3.63;0.97;;;9.10;99.90;;;;;;4972138;28;20457;-85
2022/04/08 01:13:47;;;;;;;6.23;1.23;;;9.10;99.90;;;;;;4979733;28;20447;-85
2022/04/08 01:16:12;;;;;;;3.80;0.90;;;9.20;99.90;;;;;;4980430;28;20554;-87
2022/04/08 01:18:38;;;;;;;2.40;1.07;;;9.10;99.90;;;;;;4979899;28;20194;-87
2022/04/08 01:21:07;;;;;;;2.93;1.07;;;9.10;99.90;;;;;;4963268;28;20279;-87
2022/04/08 01:23:34;;;;;;;2.80;2.07;;;9.10;99.90;;;;;;4958291;28;20751;-86
2022/04/08 01:26:10;;;;;;;4.07;0.87;;;9.10;99.90;;;;;;4980516;28;21264;-87
2022/04/08 01:28:38;;;;;;;3.03;1.10;;;9.10;99.90;;;;;;4991481;28;20450;-87
2022/04/08 01:31:04;;;;;;;4.53;1.40;;;9.10;99.90;;;;;;4979605;28;21038;-87
2022/04/08 01:33:30;;;;;;;3.03;1.00;;;9.10;99.90;;;;;;4972994;28;20198;-87
2022/04/08 01:36:04;;;;;;;3.07;1.40;;;9.00;99.90;;;;;;4971150;28;20342;-87
2022/04/08 01:38:29;;;;;;;5.20;1.20;;;9.00;99.90;;;;;;4982225;28;20671;-87
2022/04/08 01:40:55;;;;;;;2.70;1.00;;;9.00;99.90;;;;;;4962379;28;20542;-87
2022/04/08 01:43:20;;;;;;;1.53;0.97;;;9.00;99.90;;;;;;4975539;28;20195;-86
2022/04/08 01:45:48;;;;;;;4.93;1.50;;;9.00;99.90;;;;;;4977771;28;20191;-87
2022/04/08 01:48:13;;;;;;;2.90;1.10;;;9.00;99.90;;;;;;4961672;28;20184;-86
2022/04/08 01:50:39;;;;;;;3.90;1.30;;;8.90;99.90;;;;;;4973905;28;20444;-86
2022/04/08 01:53:04;;;;;;;3.73;0.90;;;8.90;99.90;;;;;;4964215;28;20624;-87
2022/04/08 01:55:31;;;;;;;6.43;1.03;;;8.90;99.90;;;;;;4972525;28;21390;-87
2022/04/08 01:57:56;;;;;;;2.23;0.77;;;8.90;99.90;;;;;;4982863;28;20490;-86
2022/04/08 02:00:22;;;;;;;1.73;0.87;;;8.90;99.90;;;;;;4990349;28;20510;-87
2022/04/08 02:02:50;;;;;;;4.03;0.80;;;8.90;99.90;;;;;;4960348;28;20684;-87
2022/04/08 02:05:16;;;;;;;2.73;0.90;;;8.90;99.90;;;;;;4976372;28;20195;-87
2022/04/08 02:07:46;;;;;;;2.43;1.40;;;8.90;99.90;;;;;;4974376;28;21124;-87
2022/04/08 02:10:12;;;;;;;2.40;0.93;;;8.90;99.90;;;;;;4959710;28;20187;-87
2022/04/08 02:12:38;;;;;;;2.90;0.77;;;8.90;99.90;;;;;;4978923;28;20454;-86
2022/04/08 02:15:04;;;;;;;2.20;0.90;;;8.90;99.90;;;;;;4974071;28;20184;-87
2022/04/08 02:17:30;;;;;;;4.70;1.40;;;8.90;99.90;;;;;;4974765;28;20314;-87
2022/04/08 02:19:56;;;;;;;2.80;0.57;;;8.90;99.90;;;;;;4965508;28;20447;-87
2022/04/08 02:22:34;;;;;;;1.13;0.90;;;8.80;99.30;;;;;;4968303;28;20444;-88
2022/04/08 02:25:01;;;;;;;3.30;0.80;;;8.90;99.70;;;;;;4963680;28;20447;-87
2022/04/08 02:27:28;;;;;;;2.40;1.03;;;8.90;99.80;;;;;;4963941;28;20475;-87
2022/04/08 02:30:05;;;;;;;1.10;1.00;;;8.80;99.90;;;;;;4962462;28;20451;-87
2022/04/08 02:33:01;;;;;;;3.07;1.00;;;8.70;99.90;;;;;;4956645;28;20446;-88
2022/04/08 02:35:29;;;;;;;2.97;0.77;;;8.70;99.90;;;;;;4965985;28;20598;-88
2022/04/08 02:37:55;;;;;;;3.47;0.93;;;8.60;99.90;;;;;;4968697;28;20507;-88
2022/04/08 02:40:20;;;;;;;3.03;1.27;;;8.60;99.90;;;;;;4953635;28;22183;-88
2022/04/08 02:42:46;;;;;;;1.43;0.77;;;8.60;99.90;;;;;;4962207;28;20195;-87
2022/04/08 02:45:11;;;;;;;1.47;0.90;;;8.50;99.90;;;;;;4990533;28;20187;-87
2022/04/08 02:47:42;;;;;;;1.60;1.00;;;8.50;99.90;;;;;;4964786;28;20231;-87
2022/04/08 02:50:07;;;;;;;1.00;0.80;;;8.50;99.90;;;;;;4971443;28;20240;-88
2022/04/08 02:52:36;;;;;;;2.50;0.87;;;8.50;99.90;;;;;;4987375;28;20522;-87
2022/04/08 02:55:09;;;;;;;1.23;0.83;;;8.50;99.90;;;;;;4991657;28;20453;-88
2022/04/08 02:57:46;;;;;;;3.30;1.10;;;8.60;99.90;;;;;;4984954;28;21050;-87
2022/04/08 03:00:19;;;;;;;3.80;1.00;;;8.60;99.90;;;;;;4988350;28;20459;-88
2022/04/08 03:02:47;;;;;;;1.17;0.67;;;8.60;99.90;;;;;;4998057;28;20432;-87
2022/04/08 03:05:13;;;;;;;2.77;1.03;;;8.60;99.90;;;;;;4985119;28;20667;-87
2022/04/08 03:07:41;;;;;;;1.37;0.80;;;8.60;99.90;;;;;;4975440;28;21146;-87
2022/04/08 03:10:09;;;;;;;1.00;0.77;;;8.70;99.90;;;;;;4982618;28;20509;-88
2022/04/08 03:12:34;;;;;;;3.63;0.77;;;8.70;99.90;;;;;;4974777;28;20453;-87
2022/04/08 03:15:00;;;;;;;2.30;0.90;;;8.70;99.90;;;;;;4979314;28;20447;-87
2022/04/08 03:17:26;;;;;;;4.13;0.97;;;8.60;99.90;;;;;;4978629;28;20256;-86
2022/04/08 03:19:52;;;;;;;2.90;0.80;;;8.70;99.90;;;;;;4970665;28;20646;-86
2022/04/08 03:22:20;;;;;;;3.33;0.80;;;8.70;99.90;;;;;;4987790;28;20448;-88
2022/04/08 03:24:46;;;;;;;1.53;0.93;;;8.60;99.60;;;;;;4972891;28;20436;-87
2022/04/08 03:27:16;;;;;;;4.87;1.83;;;8.60;99.20;;;;;;4973439;28;20449;-87
2022/04/08 03:29:42;;;;;;;2.07;0.70;;;8.50;99.30;;;;;;4968071;28;20828;-87
2022/04/08 03:32:11;;;;;;;1.70;0.97;;;8.50;99.10;;;;;;4981713;28;20552;-88
2022/04/08 03:34:38;;;;;;;4.37;1.00;;;8.50;99.20;;;;;;4976370;28;20445;-88
2022/04/08 03:37:04;;;;;;;0.87;0.87;;;8.50;99.30;;;;;;4970163;28;20476;-88
2022/04/08 03:39:30;;;;;;;5.47;1.13;;;8.50;99.10;;;;;;4960484;28;20557;-88
2022/04/08 03:41:55;;;;;;;2.53;0.70;;;8.40;99.10;;;;;;4987127;28;20449;-87
2022/04/08 03:44:30;;;;;;;2.80;1.10;;;8.40;98.90;;;;;;4967994;28;20473;-87
2022/04/08 03:46:56;;;;;;;4.17;1.10;;;8.40;99.10;;;;;;4970310;28;20550;-87
2022/04/08 03:49:26;;;;;;;3.50;0.87;;;8.30;99.10;;;;;;4974267;28;21096;-87
2022/04/08 03:51:55;;;;;;;2.60;1.00;;;8.30;99.30;;;;;;4967160;28;20212;-88
2022/04/08 03:54:21;;;;;;;2.30;0.90;;;8.30;99.60;;;;;;4981629;28;21099;-88
2022/04/08 03:56:46;;;;;;;2.07;1.07;;;8.20;99.60;;;;;;4977094;28;20556;-87
2022/04/08 03:59:12;;;;;;;1.17;0.90;;;8.20;99.50;;;;;;4963569;28;20186;-87
2022/04/08 04:01:37;;;;;;;3.13;1.27;;;8.20;99.90;;;;;;4977003;28;20187;-87
2022/04/08 04:04:06;;;;;;;1.17;0.87;;;8.20;99.50;;;;;;4990461;28;20304;-88
2022/04/08 04:06:32;;;;;;;1.20;1.10;;;8.20;98.80;;;;;;4982567;28;20255;-87
2022/04/08 04:08:58;;;;;;;5.90;1.10;;;8.20;98.30;;;;;;4959697;28;20443;-87
2022/04/08 04:11:24;;;;;;;1.40;0.60;;;8.20;98.30;;;;;;4993372;28;20186;-87
2022/04/08 04:13:49;;;;;;;1.93;1.10;;;8.20;98.20;;;;;;4993504;28;20448;-87
2022/04/08 04:16:15;;;;;;;1.60;0.60;;;8.20;98.00;;;;;;4967483;28;20223;-87
2022/04/08 04:18:40;;;;;;;2.43;0.87;;;8.20;97.40;;;;;;4968672;28;21426;-87
2022/04/08 04:21:08;;;;;;;2.37;0.77;;;8.20;97.80;;;;;;4965609;28;20280;-88
2022/04/08 04:23:34;;;;;;;3.80;1.20;;;8.10;98.20;;;;;;4978516;28;21026;-87
2022/04/08 04:26:00;;;;;;;2.83;0.97;;;8.20;98.00;;;;;;4978765;28;20462;-88
2022/04/08 04:28:33;;;;;;;3.77;1.03;;;8.20;98.20;;;;;;4964166;28;20860;-87
2022/04/08 04:31:04;;;;;;;5.97;1.17;;;8.20;98.40;;;;;;4966141;28;20466;-87
2022/04/08 04:33:46;;;;;;;1.43;1.10;;;8.10;98.80;;;;;;4987372;28;20451;-87
2022/04/08 04:36:12;;;;;;;7.03;1.47;;;8.20;98.50;;;;;;4991987;28;20459;-87
2022/04/08 04:38:37;;;;;;;3.03;1.07;;;8.10;98.70;;;;;;4975424;28;21057;-87
2022/04/08 04:41:03;;;;;;;2.00;0.93;;;8.10;98.70;;;;;;4994364;28;20430;-87
2022/04/08 04:43:29;;;;;;;1.70;0.87;;;8.10;98.70;;;;;;4982271;28;20697;-87
2022/04/08 04:45:54;;;;;;;1.57;0.93;;;8.10;99.20;;;;;;4983283;28;20208;-86
2022/04/08 04:48:22;;;;;;;2.10;1.10;;;8.00;99.30;;;;;;4973399;28;20237;-86
2022/04/08 04:50:50;;;;;;;3.53;1.40;;;8.10;99.50;;;;;;4967362;28;21693;-86
2022/04/08 04:53:32;;;;;;;1.83;0.90;;;8.10;98.80;;;;;;4989264;28;20443;-87
2022/04/08 04:55:58;;;;;;;3.30;1.20;;;8.10;99.20;;;;;;4978173;28;20447;-86
2022/04/08 04:58:30;;;;;;;5.00;1.10;;;8.10;99.70;;;;;;4971541;28;20473;-86
2022/04/08 05:00:58;;;;;;;2.10;1.03;;;8.20;99.60;;;;;;4960645;28;20508;-86
2022/04/08 05:03:23;;;;;;;5.47;1.60;;;8.20;99.90;;;;;;4986419;28;20450;-86
2022/04/08 05:05:58;;;;;;;3.00;1.53;;;8.20;99.90;;;;;;4984665;28;20826;-86
2022/04/08 05:08:23;;;;;;;3.63;2.10;;;8.20;99.90;;;;;;4987807;28;20194;-86
2022/04/08 05:10:49;;;;;;;5.93;1.40;;;8.30;99.90;;;;;;4998236;28;20444;-86
2022/04/08 05:13:14;;;;;;;2.97;1.80;;;8.30;99.60;;;;;;4977987;28;20191;-86
2022/04/08 05:15:42;;;;;;;4.37;2.10;;;8.30;99.70;;;;;;4992270;28;20276;-86
2022/04/08 05:18:17;;;;;;;2.70;1.23;;;8.30;99.90;;;;;;4986213;28;20230;-87
2022/04/08 05:20:43;;;;;;;5.33;1.60;;;8.40;99.50;;;;;;4961121;28;20963;-86
2022/04/08 05:23:10;;;;;;;3.47;1.37;;;8.40;99.20;;;;;;4965025;28;20442;-87
2022/04/08 05:25:36;;;;;;;4.70;1.40;;;8.30;99.30;;;;;;4994313;28;20310;-87
2022/04/08 05:28:02;;;;;;;3.13;1.20;;;8.30;99.30;;;;;;4971792;28;20446;-84
2022/04/08 05:30:28;;;;;;;2.37;1.00;;;8.40;99.60;;;;;;4966293;28;20288;-87
2022/04/08 05:32:58;;;;;;;5.63;1.20;;;8.40;99.70;;;;;;4962456;28;20267;-87
2022/04/08 05:35:24;;;;;;;4.63;0.93;;;8.50;99.60;;;;;;4965551;28;20529;-83
2022/04/08 05:37:49;;;;;;;2.80;1.37;;;8.50;99.90;;;;;;4956554;28;20537;-84
2022/04/08 05:40:21;;;;;;;2.93;1.00;;;8.40;99.90;;;;;;4992685;28;20188;-86
2022/04/08 05:43:20;;;;;;;;;;;;;;;;;;;;;
2022/04/08 05:45:52;;;;;;;6.87;1.40;;;8.50;99.90;;;;;;4985185;28;20464;-86
2022/04/08 05:48:25;;;;;;;2.80;1.30;;;8.60;99.90;;;;;;4961650;28;21060;-85
2022/04/08 05:50:51;;;;;;;5.17;1.73;;;8.60;99.90;;;;;;4976158;28;20465;-87
2022/04/08 05:53:21;;;;;;;6.67;2.60;;;8.60;99.90;;;;;;4989817;28;20444;-86
2022/04/08 05:55:49;;;;;;;5.03;1.90;;;8.60;99.90;;;;;;5009774;28;20190;-86
2022/04/08 05:58:14;;;;;;;3.63;1.77;;;8.60;99.90;;;;;;4982243;28;20483;-86
2022/04/08 06:00:40;;;;;;;1.87;1.70;;;8.60;99.90;;;;;;5001510;28;20443;-86
2022/04/08 06:03:16;;;;;;;3.10;1.70;;;8.50;99.90;;;;;;4984828;28;20188;-86
2022/04/08 06:05:42;;;;;;;2.60;1.33;;;8.40;99.90;;;;;;4977989;28;20315;-86
2022/04/08 06:08:08;;;;;;;1.50;1.20;;;8.40;99.90;;;;;;4970194;28;20534;-85
2022/04/08 06:10:34;;;;;;;5.10;2.90;;;8.30;99.90;;;;;;4987117;28;20197;-86
2022/04/08 06:13:01;;;;;;;3.33;1.37;;;8.10;99.90;;;;;;4990820;28;20609;-85
2022/04/08 06:15:27;;;;;;;2.83;1.20;;;8.10;99.90;;;;;;4988209;28;20449;-86
2022/04/08 06:17:54;;;;;;;2.50;0.90;;;8.00;99.90;;;;;;4978383;28;20479;-85
2022/04/08 06:20:23;;;;;;;6.40;1.17;;;8.00;99.90;;;;;;4983571;28;20187;-84
2022/04/08 06:22:49;;;;;;;1.00;0.90;;;7.90;99.90;;;;;;4977984;28;22247;-87
2022/04/08 06:25:36;;;;;;;2.73;1.50;;;7.90;99.90;;;;;;4979109;28;20441;-86
2022/04/08 06:28:07;;;;;;;2.27;1.00;;;7.80;99.90;;;;;;4982660;28;20455;-85
2022/04/08 06:30:39;;;;;;;1.77;1.10;;;7.80;99.90;;;;;;4975417;28;20448;-85
2022/04/08 06:33:06;;;;;;;3.00;1.27;;;7.70;99.90;;;;;;4982968;28;20467;-85
2022/04/08 06:35:33;;;;;;;1.77;1.20;;;7.70;99.90;;;;;;4973030;28;20494;-85
2022/04/08 06:38:01;;;;;;;4.80;1.00;;;7.70;99.90;;;;;;4973036;28;20483;-85
2022/04/08 06:40:29;;;;;;;1.03;0.70;;;7.70;99.90;;;;;;4989309;28;20435;-85
2022/04/08 06:42:59;;;;;;;2.50;0.90;;;7.60;99.90;;;;;;4975810;28;20448;-85
2022/04/08 06:45:29;;;;;;;0.97;0.80;;;7.50;99.90;;;;;;5000098;28;20453;-85
2022/04/08 06:47:55;;;;;;;1.33;0.80;;;7.60;99.90;;;;;;4970429;28;20444;-85
2022/04/08 06:50:28;;;;;;;3.03;0.77;;;7.60;99.90;;;;;;4977204;28;20436;-85
2022/04/08 06:53:01;;;;;;;2.20;1.00;;;7.60;99.90;;;;;;4997260;28;20472;-85
2022/04/08 06:55:31;;;;;;;2.50;1.63;;;7.70;99.90;;;;;;4986142;28;20481;-85
2022/04/08 06:57:59;;;;;;;3.53;1.10;;;7.70;99.90;;;;;;4969671;28;20488;-85
2022/04/08 07:00:27;;;;;;;2.33;0.83;;;7.60;99.90;;;;;;4991709;28;20452;-86
2022/04/08 07:02:54;;;;;;;1.03;0.77;;;7.60;99.90;;;;;;5005271;28;20450;-87
2022/04/08 07:05:20;;;;;;;2.73;0.93;;;7.50;99.90;;;;;;4989897;28;21151;-86
2022/04/08 07:07:46;;;;;;;2.30;1.33;;;7.50;99.90;;;;;;4994452;28;20447;-86
2022/04/08 07:10:18;;;;;;;1.40;0.70;;;7.40;99.90;;;;;;4984763;28;20250;-86
2022/04/08 07:13:03;;;;;;;1.43;0.87;;;7.40;99.90;;;;;;4985941;28;20530;-86
2022/04/08 07:15:30;;;;;;;3.20;0.90;;;7.30;99.90;;;;;;5000817;28;20466;-86
2022/04/08 07:17:56;;;;;;;1.60;0.60;;;7.40;99.90;;;;;;4984774;28;21151;-85
2022/04/08 07:20:23;;;;;;;1.13;0.80;;;7.40;99.90;;;;;;4972801;28;20437;-85
2022/04/08 07:22:49;;;;;;;1.27;0.70;;;7.40;99.90;;;;;;4999311;28;20444;-85
2022/04/08 07:25:16;;;;;;;3.37;0.90;;;7.40;99.90;;;;;;4992386;28;24093;-85
2022/04/08 07:27:43;;;;;;;1.80;0.67;;;7.30;99.90;;;;;;4998990;28;20730;-85
2022/04/08 07:30:09;;;;;;;2.60;0.97;;;7.40;99.90;;;;;;4983181;28;20446;-85
2022/04/08 07:32:34;;;;;;;2.03;0.60;;;7.40;99.90;;;;;;4987707;28;20902;-86
2022/04/08 07:35:00;;;;;;;1.60;0.70;;;7.40;99.90;;;;;;4993258;28;20939;-85
2022/04/08 07:37:29;;;;;;;1.70;1.00;;;7.40;99.90;;;;;;4985573;28;20761;-85
2022/04/08 07:39:56;;;;;;;0.80;0.80;;;7.40;99.90;;;;;;4992739;28;20766;-85
2022/04/08 07:42:25;;;;;;;2.23;0.80;;;7.40;99.90;;;;;;4988201;28;20506;-85
2022/04/08 07:44:52;;;;;;;2.00;0.73;;;7.50;99.90;;;;;;4987597;28;20455;-86
2022/04/08 07:47:19;;;;;;;0.77;0.70;;;7.50;99.90;;;;;;5002256;28;20480;-85
2022/04/08 07:49:46;;;;;;;1.20;0.80;;;7.40;99.90;;;;;;4987062;28;20466;-85
2022/04/08 07:52:11;;;;;;;2.00;0.97;;;7.50;99.90;;;;;;5001211;28;22783;-86
2022/04/08 07:54:37;;;;;;;2.20;0.90;;;7.50;99.90;;;;;;5003063;28;20527;-84
2022/04/08 07:57:03;;;;;;;3.20;0.73;;;7.50;99.90;;;;;;5001327;28;20220;-85
2022/04/08 07:59:29;;;;;;;7.57;1.33;;;7.50;99.90;;;;;;4985809;28;20185;-86
2022/04/08 08:02:02;;;;;;;4.33;0.90;;;7.60;99.90;;;;;;4985122;28;20443;-85
2022/04/08 08:04:28;;;;;;;0.80;0.60;;;7.70;99.90;;;;;;4987241;28;20220;-85
2022/04/08 08:06:54;;;;;;;1.00;0.67;;;7.80;99.90;;;;;;4992942;28;20488;-85
2022/04/08 08:09:19;;;;;;;1.80;0.70;;;8.00;99.90;;;;;;4996800;28;20528;-85
2022/04/08 08:11:45;;;;;;;2.10;1.27;;;8.20;99.90;;;;;;4992704;28;20197;-86
2022/04/08 08:14:10;;;;;;;3.13;0.70;;;8.40;99.90;;;;;;4998416;28;20212;-85
2022/04/08 08:16:36;;;;;;;3.63;1.00;;;8.30;99.90;;;;;;4984632;28;20293;-85
2022/04/08 08:19:08;;;;;;;3.03;0.93;;;8.10;99.90;;;;;;4999360;28;20894;-87
2022/04/08 08:21:33;;;;;;;1.13;0.80;;;8.00;99.90;;;;;;4997840;28;20643;-86
2022/04/08 08:23:59;;;;;;;1.77;0.70;;;8.00;99.90;;;;;;4997099;28;20597;-86
2022/04/08 08:26:25;;;;;;;2.10;0.93;;;8.10;99.90;;;;;;4994284;28;20280;-85
2022/04/08 08:28:50;;;;;;;0.77;0.60;;;8.20;99.90;;;;;;5006890;28;20189;-85
2022/04/08 08:31:16;;;;;;;2.67;1.87;;;8.20;99.90;;;;;;5003287;28;20347;-86
2022/04/08 08:33:43;;;;;;;1.20;1.10;;;8.30;99.90;;;;;;5005891;28;20191;-86
2022/04/08 08:36:09;;;;;;;1.60;1.10;;;8.50;99.90;;;;;;5002140;28;20222;-87
2022/04/08 08:38:36;;;;;;;3.77;1.43;;;8.70;99.90;;;;;;4990913;28;20564;-87
2022/04/08 08:41:02;;;;;;;2.60;1.20;;;8.70;99.90;;;;;;5007356;28;20854;-86
2022/04/08 08:43:28;;;;;;;3.60;1.03;;;8.70;99.90;;;;;;5009378;28;20200;-86
2022/04/08 08:45:56;;;;;;;2.50;1.17;;;8.40;99.90;;;;;;4999920;28;21426;-85
2022/04/08 08:48:23;;;;;;;2.07;1.07;;;8.30;99.90;;;;;;4983731;28;20196;-86
2022/04/08 08:50:55;;;;;;;0.67;0.67;;;8.30;99.90;;;;;;5002745;28;20719;-86
2022/04/08 08:53:20;;;;;;;1.13;0.73;;;8.20;99.90;;;;;;4996679;28;21838;-86
2022/04/08 08:55:48;;;;;;;1.20;0.80;;;8.30;99.90;;;;;;4996587;28;20445;-85
2022/04/08 08:58:14;;;;;;;1.27;1.10;;;8.40;99.90;;;;;;5005418;28;20307;-87
2022/04/08 09:00:40;;;;;;;2.47;1.00;;;8.40;99.90;;;;;;4985967;28;21010;-85
2022/04/08 09:03:30;;;;;;;1.33;0.80;;;8.50;99.90;;;;;;4996973;28;20645;-86
2022/04/08 09:06:08;;;;;;;1.37;0.80;;;8.10;99.90;;;;;;4983752;28;20280;-85
2022/04/08 09:08:38;;;;;;;3.57;1.03;;;8.20;99.90;;;;;;4991471;28;20453;-86
2022/04/08 09:11:10;;;;;;;1.47;1.00;;;8.20;99.90;;;;;;4988303;28;20432;-86
2022/04/08 09:13:46;;;;;;;1.67;1.00;;;8.20;99.90;;;;;;4986561;28;20437;-85
2022/04/08 09:16:12;;;;;;;2.20;1.40;;;8.10;99.90;;;;;;4996328;28;20452;-86
2022/04/08 09:18:41;;;;;;;1.00;0.83;;;8.30;99.90;;;;;;4980249;28;20443;-85
2022/04/08 09:21:07;;;;;;;1.30;1.20;;;8.40;99.90;;;;;;4977653;28;20482;-85
2022/04/08 09:23:34;;;;;;;2.07;1.30;;;8.60;99.90;;;;;;4984239;28;20450;-89
2022/04/08 09:26:05;;;;;;;0.80;0.80;;;8.80;99.90;;;;;;4987528;28;21023;-86
2022/04/08 09:28:37;;;;;;;1.23;1.17;;;9.10;99.90;;;;;;4989235;28;20454;-86
2022/04/08 09:31:04;;;;;;;3.23;1.40;;;9.10;99.90;;;;;;4999589;28;20463;-84
2022/04/08 09:33:32;;;;;;;0.90;0.90;;;9.00;99.90;;;;;;4976458;28;20442;-87
2022/04/08 09:35:59;;;;;;;3.23;1.20;;;9.10;99.90;;;;;;4992837;28;20458;-88
2022/04/08 09:38:47;;;;;;;2.40;1.07;;;9.20;99.90;;;;;;4979294;28;20533;-89
2022/04/08 09:41:13;;;;;;;1.40;0.83;;;9.20;99.90;;;;;;4979894;28;21155;-86
2022/04/08 09:43:39;;;;;;;0.97;0.90;;;9.20;99.90;;;;;;4985077;28;20452;-87
2022/04/08 09:49:14;;;;;;;1.67;1.07;;;9.20;99.90;;;;;;4983219;28;20581;-88
2022/04/08 09:51:42;;;;;;;2.33;1.10;;;9.00;99.90;;;;;;4995615;28;20444;-89
2022/04/08 09:54:42;;;;;;;1.17;0.80;;;9.20;99.90;;;;;;4979474;28;20279;-88
2022/04/08 09:57:21;;;;;;;69.20;60.10;;;9.50;99.90;;;;;;4960192;28;20828;-87
2022/04/08 09:59:58;;;;;;;18.13;16.40;;;9.60;99.90;;;;;;4997857;28;20811;-85
2022/04/08 10:02:29;;;;;;;37.50;33.80;;;9.40;99.90;;;;;;4995463;28;20462;-85
2022/04/08 10:04:55;;;;;;;14.07;12.57;;;9.20;99.90;;;;;;4991367;28;20457;-89
2022/04/08 10:07:22;;;;;;;0.97;0.87;;;9.20;99.90;;;;;;4974054;28;20451;-87
2022/04/08 10:10:02;;;;;;;0.90;0.90;;;9.00;99.90;;;;;;4999746;28;20454;-88
2022/04/08 10:12:53;;;;;;;0.67;0.67;;;8.70;99.90;;;;;;4975814;28;20453;-86
2022/04/08 10:15:28;;;;;;;1.33;0.80;;;8.60;99.90;;;;;;4982588;28;20493;-88
2022/04/08 10:17:58;;;;;;;1.13;1.10;;;8.60;99.90;;;;;;4959682;28;20482;-88
2022/04/08 10:20:27;;;;;;;1.00;0.87;;;8.50;99.90;;;;;;4980539;28;20473;-86
2022/04/08 10:23:09;;;;;;;0.83;0.77;;;8.60;99.90;;;;;;4984663;28;21827;-84
2022/04/08 10:25:50;;;;;;;0.70;0.70;;;8.60;99.90;;;;;;4976879;28;20590;-87
2022/04/08 10:28:16;;;;;;;4.30;0.70;;;8.60;99.90;;;;;;4986305;28;20446;-88
2022/04/08 10:30:49;;;;;;;1.77;1.20;;;8.50;99.90;;;;;;4990643;28;20447;-83
2022/04/08 10:33:28;;;;;;;0.83;0.83;;;8.50;99.90;;;;;;4983856;28;21057;-85
2022/04/08 10:35:55;;;;;;;1.30;1.20;;;8.60;99.90;;;;;;4985638;28;21590;-88
2022/04/08 10:38:38;;;;;;;1.27;1.17;;;8.60;99.90;;;;;;4998022;28;20742;-87
2022/04/08 10:41:08;;;;;;;2.23;1.40;;;8.60;99.90;;;;;;4981336;28;20438;-89
2022/04/08 10:43:44;;;;;;;1.20;1.20;;;8.60;99.90;;;;;;4969831;28;20498;-88
2022/04/08 10:46:26;;;;;;;1.60;1.37;;;8.70;99.90;;;;;;4965946;28;20452;-88
2022/04/08 10:48:59;;;;;;;1.90;1.80;;;8.80;99.90;;;;;;4976962;28;20448;-90
2022/04/08 10:51:30;;;;;;;1.93;1.70;;;8.50;99.90;;;;;;4976710;28;20444;-91
2022/04/08 10:54:05;;;;;;;1.40;1.30;;;8.40;99.90;;;;;;4984316;28;20459;-91
2022/04/08 10:56:37;;;;;;;1.60;1.50;;;8.30;99.90;;;;;;4981569;28;20456;-89
2022/04/08 10:59:03;;;;;;;1.80;1.67;;;8.20;99.90;;;;;;4992871;28;20458;-89
2022/04/08 11:01:35;;;;;;;2.33;1.60;;;8.30;99.90;;;;;;4994095;28;20462;-89
2022/04/08 11:04:03;;;;;;;1.97;1.40;;;8.40;99.90;;;;;;4996378;28;22506;-88
2022/04/08 11:06:33;;;;;;;2.20;1.60;;;8.40;99.90;;;;;;4977148;28;20830;-88
2022/04/08 11:09:10;;;;;;;5.77;1.90;;;8.30;99.90;;;;;;4982198;28;20455;-89
2022/04/08 11:11:41;;;;;;;1.83;1.60;;;8.30;99.90;;;;;;4995421;28;20861;-86
2022/04/08 11:14:08;;;;;;;1.80;1.70;;;8.20;99.90;;;;;;4969759;28;20542;-84
2022/04/08 11:16:36;;;;;;;1.83;1.60;;;8.30;99.90;;;;;;5002516;28;20444;-89
2022/04/08 11:19:11;;;;;;;1.43;1.33;;;8.40;99.90;;;;;;4977252;28;20462;-85
2022/04/08 11:21:44;;;;;;;2.27;1.87;;;8.20;99.90;;;;;;4993605;28;20433;-87
2022/04/08 11:24:18;;;;;;;1.67;1.57;;;8.10;99.90;;;;;;4980959;28;20453;-86
2022/04/08 11:26:53;;;;;;;1.90;1.80;;;8.20;99.90;;;;;;4979877;28;20645;-87
2022/04/08 11:29:24;;;;;;;2.00;1.90;;;8.30;99.90;;;;;;4990106;28;20447;-86
2022/04/08 11:31:53;;;;;;;1.87;1.77;;;8.00;99.90;;;;;;4990967;28;20452;-87
2022/04/08 11:34:57;;;;;;;2.20;1.60;;;7.90;99.90;;;;;;4983173;28;20979;-86
2022/04/08 11:37:27;;;;;;;2.90;2.70;;;7.70;99.90;;;;;;4987102;28;20567;-86
2022/04/08 11:40:00;;;;;;;2.57;2.37;;;7.60;99.90;;;;;;4984864;28;20444;-87
2022/04/08 11:42:26;;;;;;;2.53;1.70;;;7.70;99.90;;;;;;4981104;28;21019;-86
2022/04/08 11:44:52;;;;;;;1.97;1.77;;;7.70;99.90;;;;;;4989308;28;20535;-86
2022/04/08 11:47:28;;;;;;;3.60;1.80;;;7.80;99.90;;;;;;5002156;28;20189;-87
2022/04/08 11:50:06;;;;;;;4.33;1.87;;;7.80;99.90;;;;;;5013319;28;20234;-87
2022/04/08 11:52:32;;;;;;;1.37;1.27;;;7.80;99.90;;;;;;5001849;28;20448;-87
2022/04/08 11:55:09;;;;;;;1.57;1.47;;;8.00;99.90;;;;;;5011807;28;20452;-86
2022/04/08 11:57:42;;;;;;;1.80;1.57;;;7.90;99.90;;;;;;4983535;28;20255;-88
2022/04/08 12:00:08;;;;;;;1.77;1.60;;;7.90;99.90;;;;;;4984736;28;21037;-87
2022/04/08 12:02:36;;;;;;;2.13;1.80;;;7.90;99.90;;;;;;4982158;28;20532;-87
2022/04/08 12:05:02;;;;;;;1.80;1.70;;;7.90;99.90;;;;;;4984690;28;20860;-87
2022/04/08 12:07:28;;;;;;;2.73;2.00;;;7.90;99.90;;;;;;4995022;28;20455;-87
2022/04/08 12:09:55;;;;;;;2.60;2.27;;;7.80;99.90;;;;;;4981371;28;20447;-87
2022/04/08 12:12:38;;;;;;;1.77;1.63;;;7.90;99.90;;;;;;4984185;28;20197;-86
2022/04/08 12:15:08;;;;;;;1.87;1.33;;;8.00;99.90;;;;;;4973263;28;20443;-87
2022/04/08 12:17:43;;;;;;;1.90;1.80;;;8.00;99.90;;;;;;4987927;28;20478;-87
2022/04/08 12:20:19;;;;;;;2.23;2.13;;;7.80;99.90;;;;;;4993684;28;20436;-87
2022/04/08 12:22:47;;;;;;;1.63;1.53;;;7.80;99.90;;;;;;5013332;28;20446;-87
2022/04/08 12:25:14;;;;;;;4.33;3.07;;;7.90;99.90;;;;;;4987261;28;21216;-87
2022/04/08 12:27:42;;;;;;;3.63;2.07;;;7.90;99.90;;;;;;4975228;28;20693;-87
2022/04/08 12:30:11;;;;;;;2.87;2.67;;;7.80;99.90;;;;;;4975557;28;20809;-85
2022/04/08 12:32:39;;;;;;;2.80;2.43;;;7.80;99.90;;;;;;4979879;28;20455;-86
2022/04/08 12:35:07;;;;;;;3.80;3.17;;;7.90;99.90;;;;;;4981099;28;20449;-86
2022/04/08 12:37:33;;;;;;;3.83;2.90;;;7.90;99.90;;;;;;4967810;28;20532;-87
2022/04/08 12:39:59;;;;;;;3.27;2.60;;;8.00;99.90;;;;;;4966851;28;20440;-88
2022/04/08 12:42:24;;;;;;;2.37;2.27;;;7.80;99.90;;;;;;4972688;28;20472;-88
2022/04/08 12:44:50;;;;;;;3.23;3.03;;;7.80;99.90;;;;;;4979121;28;20749;-87
2022/04/08 12:47:15;;;;;;;2.00;1.90;;;8.00;99.90;;;;;;4968505;28;21358;-87
2022/04/08 12:49:41;;;;;;;2.60;2.40;;;8.00;99.90;;;;;;4970657;28;20200;-88
2022/04/08 12:52:06;;;;;;;2.47;2.30;;;8.00;99.90;;;;;;4976132;28;21163;-87
2022/04/08 12:54:32;;;;;;;3.10;2.90;;;8.10;99.90;;;;;;4983125;28;20193;-87
2022/04/08 12:56:57;;;;;;;3.40;3.10;;;8.00;99.90;;;;;;4983204;28;21963;-87
2022/04/08 12:59:23;;;;;;;3.00;2.77;;;8.00;99.90;;;;;;4982847;28;21103;-87
2022/04/08 13:01:49;;;;;;;4.17;3.67;;;7.80;99.90;;;;;;4967925;28;20569;-88
2022/04/08 13:04:14;;;;;;;4.70;4.40;;;7.80;99.90;;;;;;4975521;28;20184;-87
2022/04/08 13:06:40;;;;;;;2.70;2.50;;;7.80;99.90;;;;;;4976126;28;21026;-88
2022/04/08 13:09:29;;;;;;;2.40;1.93;;;8.00;99.90;;;;;;4987525;28;20630;-88